CW7832 Weather Reports


Display with metric or nautical units.
time (UTC)temp
F
wind
direction
speed
MPH
gust
MPH
rain 1hr
in
rain 24hr
in
rain mn
in
humidity
%
barometer
mb
20210618235004 73 206 9.0 20.0 0.00 0.06 0.06 73 1006.1
20210618234003 73 182 9.0 21.0 0.00 0.06 0.06 72 1006.3
20210618233004 74 185 10.0 22.0 0.00 0.06 0.06 72 1006.3
20210618232005 74 222 10.0 22.0 0.00 0.06 0.06 70 1006.3
20210618231006 75 173 9.0 17.0 0.00 0.06 0.06 70 1006.1
20210618230006 76 187 9.0 19.0 0.00 0.06 0.06 68 1006.1
20210618225005 77 224 7.0 14.0 0.00 0.06 0.06 68 1006.2
20210618224005 76 218 7.0 14.0 0.00 0.06 0.06 68 1006.1
20210618223004 76 198 7.0 18.0 0.00 0.06 0.06 67 1006.2
20210618222005 75 188 6.0 11.0 0.00 0.06 0.06 69 1006.2
20210618221004 74 214 6.0 13.0 0.00 0.06 0.06 69 1006.2
20210618220004 75 222 6.0 11.0 0.00 0.06 0.06 68 1006.3
20210618215004 75 220 6.0 11.0 0.00 0.06 0.06 68 1006.3
20210618214007 75 197 7.0 12.0 0.00 0.06 0.06 66 1006.4
20210618213007 76 226 8.0 14.0 0.00 0.06 0.06 64 1006.7
20210618212004 77 217 6.0 13.0 0.00 0.06 0.06 65 1006.7
20210618211008 78 220 8.0 14.0 0.00 0.06 0.06 65 1006.7
20210618210005 77 224 8.0 16.0 0.00 0.06 0.06 64 1006.8
20210618205007 77 183 11.0 21.0 0.00 0.06 0.06 67 1007.0
20210618204005 76 185 9.0 19.0 0.00 0.06 0.06 69 1007.0
20210618203004 75 173 11.0 18.0 0.00 0.06 0.06 75 1007.0
20210618202005 73 173 6.0 13.0 0.00 0.06 0.06 82 1007.1
20210618201004 72 174 4.0 8.0 0.00 0.06 0.06 85 1007.3
20210618200005 71 168 4.0 7.0 0.00 0.06 0.06 86 1007.5
20210618195006 70 168 2.0 4.0 0.00 0.06 0.06 86 1007.8
20210618194004 70 174 2.0 4.0 0.00 0.06 0.06 87 1007.8
20210618193007 69 194 0.0 0.0 0.00 0.06 0.06 87 1007.9
20210618192009 68 194 0.0 3.0 0.00 0.06 0.06 88 1007.9
20210618191006 68 194 3.0 5.0 0.01 0.06 0.06 88 1008.2
20210618190006 68 198 1.0 5.0 0.01 0.06 0.06 89 1008.2
20210618185005 67 203 2.0 4.0 0.02 0.06 0.06 88 1008.3
20210618184005 67 209 3.0 6.0 0.02 0.06 0.06 87 1008.5
20210618183005 67 233 2.0 6.0 0.03 0.06 0.06 89 1009.0
20210618182006 67 193 3.0 7.0 0.03 0.06 0.06 88 1009.1
20210618181005 66 191 4.0 11.0 0.02 0.05 0.05 87 1009.3
20210618180007 67 210 4.0 9.0 0.02 0.05 0.05 86 1009.6
20210618175005 67 190 5.0 10.0 0.01 0.04 0.04 84 1009.8
20210618174005 67 208 6.0 16.0 0.01 0.04 0.04 84 1009.8
20210618173005 68 195 5.0 14.0 0.00 0.03 0.03 83 1009.9
20210618172006 68 190 7.0 15.0 0.00 0.03 0.03 82 1010.2
20210618171004 68 191 7.0 15.0 0.00 0.03 0.03 81 1010.3
20210618170005 68 161 9.0 20.0 0.00 0.03 0.03 81 1010.6
20210618165007 68 218 7.0 15.0 0.00 0.03 0.03 82 1010.7
20210618164005 68 228 8.0 16.0 0.00 0.03 0.03 82 1010.8
20210618163004 68 220 9.0 19.0 0.00 0.03 0.03 81 1010.8
20210618162006 68 238 8.0 16.0 0.01 0.03 0.03 82 1010.7
20210618161005 67 214 8.0 19.0 0.01 0.03 0.03 82 1010.8
20210618160006 67 235 10.0 19.0 0.01 0.03 0.03 83 1011.0
20210618155005 66 208 7.0 16.0 0.01 0.03 0.03 86 1011.2
20210618154005 66 195 6.0 16.0 0.01 0.03 0.03 86 1011.4
20210618153006 65 212 7.0 16.0 0.01 0.03 0.03 86 1011.2
20210618152007 65 203 5.0 14.0 0.01 0.02 0.02 86 1011.2
20210618151005 65 215 6.0 13.0 0.01 0.02 0.02 86 1011.2
20210618150005 65 199 7.0 16.0 0.02 0.02 0.02 86 1011.2
20210618145007 65 217 6.0 13.0 0.02 0.02 0.02 88 1011.1
20210618144007 64 214 6.0 14.0 0.02 0.02 0.02 86 1011.0
20210618143005 65 224 5.0 10.0 0.02 0.02 0.02 85 1011.1
20210618142004 65 205 5.0 12.0 0.01 0.01 0.01 83 1011.0
20210618141006 66 206 7.0 15.0 0.01 0.01 0.01 80 1011.2
20210618140005 67 203 8.0 16.0 0.00 0.00 0.00 76 1011.3
20210618135004 68 201 8.0 16.0 0.00 0.00 0.00 73 1011.3
20210618134004 68 214 8.0 16.0 0.00 0.00 0.00 72 1011.4
20210618133004 68 193 10.0 21.0 0.00 0.00 0.00 71 1011.5
20210618132007 68 202 12.0 22.0 0.00 0.00 0.00 71 1011.5
20210618131005 69 233 11.0 23.0 0.00 0.00 0.00 69 1011.1
20210618130004 69 235 11.0 25.0 0.00 0.00 0.00 67 1011.4
20210618125004 69 188 10.0 21.0 0.00 0.00 0.00 66 1011.4
20210618124007 69 201 9.0 21.0 0.00 0.00 0.00 65 1011.2
20210618123005 69 200 8.0 18.0 0.00 0.00 0.00 65 1011.1
20210618122003 69 235 9.0 17.0 0.00 0.00 0.00 66 1011.2
20210618121003 68 195 7.0 15.0 0.00 0.00 0.00 67 1011.2
20210618120004 67 214 5.0 15.0 0.00 0.00 0.00 66 1011.3
20210618115005 67 163 6.0 16.0 0.00 0.00 0.00 66 1011.4
20210618114006 67 197 7.0 15.0 0.00 0.00 0.00 65 1011.6
20210618113006 67 199 8.0 18.0 0.00 0.00 0.00 65 1011.4
20210618112005 67 206 7.0 15.0 0.00 0.00 0.00 65 1011.2
20210618111004 67 202 8.0 14.0 0.00 0.00 0.00 64 1011.1
20210618110005 67 181 11.0 17.0 0.00 0.00 0.00 64 1010.7
20210618105007 67 186 11.0 18.0 0.00 0.00 0.00 63 1010.6
20210618104005 67 191 10.0 16.0 0.00 0.00 0.00 64 1010.6
20210618103005 66 180 9.0 16.0 0.00 0.00 0.00 64 1010.5
20210618102003 66 170 9.0 15.0 0.00 0.00 0.00 64 1010.8
20210618101004 66 166 10.0 16.0 0.00 0.00 0.00 63 1010.8
20210618100007 66 184 9.0 14.0 0.00 0.00 0.00 64 1010.9
20210618095004 65 170 9.0 15.0 0.00 0.00 0.00 65 1011.1
20210618094004 65 185 8.0 13.0 0.00 0.00 0.00 65 1011.2
20210618093004 65 180 7.0 11.0 0.00 0.00 0.00 66 1011.4
20210618092001 65 178 6.0 9.0 0.00 0.00 0.00 67 1011.5
20210618091001 64 179 6.0 9.0 0.00 0.00 0.00 67 1011.6
20210618085959 64 173 5.0 10.0 0.00 0.00 0.00 68 1011.5
20210618084958 64 172 6.0 11.0 0.00 0.00 0.00 68 1011.5
20210618083956 64 179 6.0 10.0 0.00 0.00 0.00 69 1011.6
20210618082951 63 188 7.0 12.0 0.00 0.00 0.00 70 1011.5
20210618081949 62 183 6.0 11.0 0.00 0.00 0.00 73 1011.7
20210618080950 60 184 5.0 13.0 0.00 0.00 0.00 77 1011.8
20210618075950 58 190 6.0 10.0 0.00 0.00 0.00 84 1011.8
20210618074950 55 181 4.0 9.0 0.00 0.00 0.00 86 1012.1
20210618073949 54 181 2.0 7.0 0.00 0.00 0.00 87 1012.4
20210618072949 53 163 0.0 0.0 0.00 0.00 0.00 88 1012.5
20210618071950 53 162 0.0 0.0 0.00 0.00 0.00 88 1012.8
20210618070951 52 163 0.0 0.0 0.00 0.00 0.00 88 1012.6
20210618065945 52 162 0.0 0.0 0.00 0.00 0.00 89 1012.9
20210618064945 52 162 0.0 0.0 0.00 0.00 0.00 88 1012.9
20210618063945 52 163 0.0 0.0 0.00 0.00 0.00 87 1012.9
20210618062945 52 162 0.0 0.0 0.00 0.00 0.00 87 1012.9
20210618061943 52 162 0.0 1.0 0.00 0.00 0.00 86 1012.9
20210618060944 53 163 0.0 0.0 0.00 0.00 0.00 85 1012.9
20210618055946 52 162 1.0 3.0 0.00 0.00 0.00 85 1012.9
20210618054944 53 162 1.0 3.0 0.00 0.00 0.00 85 1013.0
20210618053941 53 172 0.0 0.0 0.00 0.00 0.00 83 1013.1
20210618052942 53 171 0.0 3.0 0.00 0.00 0.00 82 1013.3
20210618051941 53 171 2.0 3.0 0.00 0.00 0.00 82 1013.2
20210618050941 53 171 1.0 3.0 0.00 0.00 0.00 83 1013.3
20210618045941 54 171 1.0 3.0 0.00 0.00 0.00 81 1013.3
20210618044940 54 171 0.0 3.0 0.00 0.00 0.00 78 1013.3
20210618043941 54 170 0.0 1.0 0.00 0.00 0.00 78 1013.1
20210618042940 55 170 0.0 1.0 0.00 0.00 0.00 76 1013.3
20210618041941 56 169 0.0 1.0 0.00 0.00 0.00 74 1013.5
20210618040940 56 170 1.0 3.0 0.00 0.00 0.00 73 1013.4
20210618035936 56 170 2.0 3.0 0.00 0.00 0.00 74 1013.3
20210618034938 56 171 2.0 3.0 0.00 0.00 0.00 73 1013.3
20210618033937 55 170 2.0 3.0 0.00 0.00 0.00 74 1013.2
20210618032936 56 170 2.0 4.0 0.00 0.00 0.00 75 1013.4
20210618031937 56 187 2.0 4.0 0.00 0.00 0.00 74 1013.5
20210618030936 57 186 2.0 5.0 0.00 0.00 0.00 71 1013.6
20210618025932 57 187 2.0 4.0 0.00 0.00 0.00 71 1013.5
20210618024932 58 187 3.0 5.0 0.00 0.00 0.00 68 1013.6
20210618023933 59 188 2.0 5.0 0.00 0.00 0.00 67 1013.8
20210618022931 59 188 2.0 4.0 0.00 0.00 0.00 64 1013.7
20210618021934 60 189 2.0 5.0 0.00 0.00 0.00 61 1013.8
20210618020931 61 188 3.0 5.0 0.00 0.00 0.00 60 1013.8
20210618015931 62 179 2.0 5.0 0.00 0.00 0.00 58 1013.8
20210618014935 62 182 2.0 5.0 0.00 0.00 0.00 57 1013.7
20210618013936 63 183 4.0 6.0 0.00 0.00 0.00 55 1013.8
20210618012933 63 195 4.0 8.0 0.00 0.00 0.00 53 1013.7
20210618011932 64 188 3.0 7.0 0.00 0.00 0.00 53 1013.7
20210618010931 64 189 5.0 7.0 0.00 0.00 0.00 51 1013.6
20210618005931 65 179 4.0 8.0 0.00 0.00 0.00 51 1013.7
20210618004932 65 182 5.0 9.0 0.00 0.00 0.00 49 1013.6
20210618003933 66 183 6.0 9.0 0.00 0.00 0.00 48 1013.6
20210618002932 67 191 6.0 11.0 0.00 0.00 0.00 46 1013.7
20210618001936 68 178 8.0 12.0 0.00 0.00 0.00 44 1013.7
20210618000933 68 189 10.0 17.0 0.00 0.00 0.00 43 1013.9
20210617235933 69 181 9.0 16.0 0.00 0.00 0.00 42 1014.0